Time;durP1;ratioP1;P1;durP2;ratioP2;P2;SDS_P1;SDS_P2;PMS_P1;PMS_P2;Temp;Humidity;BMP_temperature;BMP_pressure;BME280_temperature;BME280_humidity;BME280_pressure;Samples;Min_cycle;Max_cycle;Signal;HPM_P1;HPM_P2
2022/08/22 00:00:59;;;;;;;11.10;5.00;;;;;;;;;;5136610;27;20884;-64
2022/08/22 00:03:35;;;;;;;9.83;4.57;;;;;;;;;;5136739;27;20494;-64
2022/08/22 00:06:09;;;;;;;13.90;4.80;;;;;;;;;;5136935;27;20760;-64
2022/08/22 00:08:40;;;;;;;6.10;4.87;;;;;;;;;;5136412;27;20931;-64
2022/08/22 00:11:11;;;;;;;11.13;5.13;;;;;;;;;;5136827;27;20501;-64
2022/08/22 00:13:42;;;;;;;12.90;5.00;;;;;;;;;;5136142;27;20594;-64
2022/08/22 00:16:13;;;;;;;6.57;4.70;;;;;;;;;;5136405;27;20454;-64
2022/08/22 00:18:46;;;;;;;8.67;4.70;;;;;;;;;;5136181;27;20418;-64
2022/08/22 00:21:15;;;;;;;10.73;4.67;;;;;;;;;;5135722;27;20950;-65
2022/08/22 00:23:46;;;;;;;6.43;4.90;;;;;;;;;;5136048;27;20526;-65
2022/08/22 00:26:20;;;;;;;9.33;5.27;;;;;;;;;;5136191;27;20422;-65
2022/08/22 00:28:51;;;;;;;9.63;5.90;;;;;;;;;;5136025;27;20415;-65
2022/08/22 00:31:23;;;;;;;8.33;4.70;;;;;;;;;;5135886;27;20430;-64
2022/08/22 00:33:54;;;;;;;6.93;4.70;;;;;;;;;;5135539;27;20426;-64
2022/08/22 00:36:26;;;;;;;6.90;4.30;;;;;;;;;;5135772;27;20419;-64
2022/08/22 00:38:59;;;;;;;9.87;4.37;;;;;;;;;;5135998;27;20839;-64
2022/08/22 00:41:34;;;;;;;10.97;4.63;;;;;;;;;;5135762;27;20544;-65
2022/08/22 00:44:17;;;;;;;11.17;4.60;;;;;;;;;;5135340;27;20524;-64
2022/08/22 00:46:57;;;;;;;9.13;4.67;;;;;;;;;;5135281;27;20418;-64
2022/08/22 00:49:32;;;;;;;9.07;4.80;;;;;;;;;;5135702;27;20504;-64
2022/08/22 00:52:08;;;;;;;10.33;4.80;;;;;;;;;;5135649;27;20445;-64
2022/08/22 00:54:46;;;;;;;9.53;4.70;;;;;;;;;;5135495;27;20435;-64
2022/08/22 00:57:27;;;;;;;8.83;5.10;;;;;;;;;;5135685;27;20419;-64
2022/08/22 01:00:04;;;;;;;12.60;4.40;;;;;;;;;;5135576;27;20829;-64
2022/08/22 01:02:34;;;;;;;12.70;4.73;;;;;;;;;;5135406;27;20468;-63
2022/08/22 01:05:08;;;;;;;9.83;5.07;;;;;;;;;;5135537;27;20505;-64
2022/08/22 01:07:45;;;;;;;6.73;4.57;;;;;;;;;;5135502;27;20413;-64
2022/08/22 01:10:19;;;;;;;6.87;5.10;;;;;;;;;;5135392;27;20432;-64
2022/08/22 01:12:53;;;;;;;8.33;5.20;;;;;;;;;;5135075;27;20514;-65
2022/08/22 01:15:23;;;;;;;11.50;6.00;;;;;;;;;;5135151;27;20816;-65
2022/08/22 01:17:55;;;;;;;8.10;5.33;;;;;;;;;;5135182;27;20443;-65
2022/08/22 01:20:41;;;;;;;10.00;5.10;;;;;;;;;;5135104;27;20517;-64
2022/08/22 01:23:28;;;;;;;9.00;5.70;;;;;;;;;;5134818;27;20474;-64
2022/08/22 01:26:14;;;;;;;6.10;4.80;;;;;;;;;;5135097;27;20516;-64
2022/08/22 01:29:00;;;;;;;13.10;5.40;;;;;;;;;;5134856;27;20468;-65
2022/08/22 01:31:54;;;;;;;7.87;4.37;;;;;;;;;;5134466;27;20959;-65
2022/08/22 01:34:45;;;;;;;18.00;5.07;;;;;;;;;;5135060;27;20423;-64
2022/08/22 01:37:23;;;;;;;10.00;4.70;;;;;;;;;;5114427;27;20440;-65
2022/08/22 01:40:03;;;;;;;11.27;5.27;;;;;;;;;;5134954;27;20505;-64
2022/08/22 01:42:47;;;;;;;6.30;3.97;;;;;;;;;;5134899;27;20558;-65
2022/08/22 01:45:41;;;;;;;11.40;5.30;;;;;;;;;;5135233;27;20425;-64
2022/08/22 01:48:10;;;;;;;8.77;4.90;;;;;;;;;;5134680;27;20521;-64
2022/08/22 01:50:38;;;;;;;5.40;4.37;;;;;;;;;;5135136;28;20469;-64
2022/08/22 01:53:12;;;;;;;11.13;4.80;;;;;;;;;;5134844;28;20834;-65
2022/08/22 01:55:43;;;;;;;10.03;4.93;;;;;;;;;;5134778;28;20480;-64
2022/08/22 01:58:15;;;;;;;11.00;4.80;;;;;;;;;;5134198;27;20416;-64
2022/08/22 02:01:07;;;;;;;6.60;4.80;;;;;;;;;;5138132;27;20503;-64
2022/08/22 02:03:36;;;;;;;9.40;5.30;;;;;;;;;;5138342;27;20454;-65
2022/08/22 02:06:05;;;;;;;8.13;4.23;;;;;;;;;;5139232;27;20522;-65
2022/08/22 02:08:38;;;;;;;7.90;4.40;;;;;;;;;;5138312;27;20450;-65
2022/08/22 02:11:07;;;;;;;7.50;5.27;;;;;;;;;;5138770;27;20420;-65
2022/08/22 02:13:42;;;;;;;9.90;4.40;;;;;;;;;;5138496;27;20441;-64
2022/08/22 02:16:13;;;;;;;9.53;4.83;;;;;;;;;;5139274;27;20459;-64
2022/08/22 02:18:46;;;;;;;5.23;4.70;;;;;;;;;;5138170;27;20466;-65
2022/08/22 02:21:17;;;;;;;8.40;4.77;;;;;;;;;;5138727;27;20414;-64
2022/08/22 02:23:48;;;;;;;12.50;5.47;;;;;;;;;;5138069;27;20889;-64
2022/08/22 02:26:17;;;;;;;6.80;4.80;;;;;;;;;;5138527;27;20419;-65
2022/08/22 02:28:53;;;;;;;10.67;5.90;;;;;;;;;;5138209;27;20484;-64
2022/08/22 02:31:22;;;;;;;13.10;4.83;;;;;;;;;;5138293;27;20430;-64
2022/08/22 02:33:55;;;;;;;11.50;5.33;;;;;;;;;;5138144;27;20520;-64
2022/08/22 02:36:25;;;;;;;11.97;4.80;;;;;;;;;;5138764;27;20417;-65
2022/08/22 02:38:58;;;;;;;9.27;4.60;;;;;;;;;;5138420;27;20484;-64
2022/08/22 02:41:28;;;;;;;8.87;5.33;;;;;;;;;;5138401;27;20427;-64
2022/08/22 02:43:58;;;;;;;10.70;5.60;;;;;;;;;;5137503;27;20447;-64
2022/08/22 02:46:28;;;;;;;9.33;5.50;;;;;;;;;;5138291;27;20474;-64
2022/08/22 02:49:01;;;;;;;8.93;4.57;;;;;;;;;;5138077;27;20547;-64
2022/08/22 02:51:32;;;;;;;13.63;5.07;;;;;;;;;;5137650;27;20414;-64
2022/08/22 02:54:08;;;;;;;10.70;5.30;;;;;;;;;;5138051;27;20424;-64
2022/08/22 02:56:39;;;;;;;9.70;5.37;;;;;;;;;;5137810;27;20414;-64
2022/08/22 02:59:13;;;;;;;10.20;4.93;;;;;;;;;;5137396;27;20439;-65
2022/08/22 03:01:42;;;;;;;16.10;6.70;;;;;;;;;;5137372;27;20426;-64
2022/08/22 03:04:17;;;;;;;7.10;6.10;;;;;;;;;;5137545;27;20426;-64
2022/08/22 03:06:45;;;;;;;10.73;4.90;;;;;;;;;;5137767;27;20432;-64
2022/08/22 03:09:23;;;;;;;10.50;5.13;;;;;;;;;;5137540;27;20833;-64
2022/08/22 03:11:54;;;;;;;8.87;4.93;;;;;;;;;;5138160;27;20790;-64
2022/08/22 03:14:24;;;;;;;11.20;5.67;;;;;;;;;;5137431;27;20503;-64
2022/08/22 03:16:54;;;;;;;8.90;5.13;;;;;;;;;;5137964;27;20830;-64
2022/08/22 03:19:25;;;;;;;10.90;6.60;;;;;;;;;;5136901;27;20430;-64
2022/08/22 03:21:56;;;;;;;7.63;5.70;;;;;;;;;;5137153;27;20897;-65
2022/08/22 03:24:28;;;;;;;7.87;4.67;;;;;;;;;;5137457;27;20436;-64
2022/08/22 03:27:00;;;;;;;14.13;5.70;;;;;;;;;;5137192;27;20416;-64
2022/08/22 03:29:30;;;;;;;11.10;4.90;;;;;;;;;;5137254;27;20433;-64
2022/08/22 03:32:08;;;;;;;9.93;4.87;;;;;;;;;;5137042;27;20525;-64
2022/08/22 03:34:35;;;;;;;9.50;5.90;;;;;;;;;;5136622;27;20441;-64
2022/08/22 03:37:06;;;;;;;8.80;4.90;;;;;;;;;;5136995;27;20431;-64
2022/08/22 03:39:45;;;;;;;15.77;4.90;;;;;;;;;;5137162;27;20419;-64
2022/08/22 03:42:25;;;;;;;12.80;5.50;;;;;;;;;;5136836;27;20460;-64
2022/08/22 03:45:15;;;;;;;7.97;4.97;;;;;;;;;;5136550;27;20466;-64
2022/08/22 03:47:52;;;;;;;11.23;5.90;;;;;;;;;;5137379;27;20785;-63
2022/08/22 03:50:37;;;;;;;11.17;5.23;;;;;;;;;;5137063;27;20803;-64
2022/08/22 03:53:19;;;;;;;19.67;5.73;;;;;;;;;;5137129;27;20771;-64
2022/08/22 03:56:01;;;;;;;8.83;5.30;;;;;;;;;;5136383;27;20891;-63
2022/08/22 03:58:40;;;;;;;9.10;5.20;;;;;;;;;;5119444;27;20468;-64
2022/08/22 04:01:20;;;;;;;6.93;5.07;;;;;;;;;;5136240;27;20422;-64
2022/08/22 04:04:17;;;;;;;14.77;5.97;;;;;;;;;;5136511;27;20561;-65
2022/08/22 04:06:59;;;;;;;10.57;6.60;;;;;;;;;;5136725;27;20414;-64
2022/08/22 04:09:43;;;;;;;7.50;5.50;;;;;;;;;;5133089;27;20438;-65
2022/08/22 04:12:21;;;;;;;12.20;5.53;;;;;;;;;;5136095;27;20463;-65
2022/08/22 04:15:00;;;;;;;10.43;5.17;;;;;;;;;;5135716;27;21025;-65
2022/08/22 04:17:44;;;;;;;10.00;5.57;;;;;;;;;;5136655;27;20417;-64
2022/08/22 04:20:28;;;;;;;9.63;6.00;;;;;;;;;;5135783;27;20444;-64
2022/08/22 04:23:13;;;;;;;13.07;7.00;;;;;;;;;;5135104;27;20483;-65
2022/08/22 04:25:42;;;;;;;17.23;7.07;;;;;;;;;;5136024;27;20429;-64
2022/08/22 04:28:12;;;;;;;12.13;6.17;;;;;;;;;;5135996;27;20861;-64
2022/08/22 04:30:43;;;;;;;12.70;6.90;;;;;;;;;;5135832;27;20418;-64
2022/08/22 04:33:13;;;;;;;14.93;5.87;;;;;;;;;;5135855;27;20437;-64
2022/08/22 04:35:43;;;;;;;15.23;6.37;;;;;;;;;;5135703;27;20422;-64
2022/08/22 04:38:13;;;;;;;16.27;6.53;;;;;;;;;;5135510;27;20524;-64
2022/08/22 04:40:43;;;;;;;9.40;5.90;;;;;;;;;;5135599;27;20429;-64
2022/08/22 04:43:13;;;;;;;10.40;5.33;;;;;;;;;;5135358;27;20473;-64
2022/08/22 04:45:44;;;;;;;10.00;6.43;;;;;;;;;;5135565;27;20512;-65
2022/08/22 04:48:15;;;;;;;7.13;5.77;;;;;;;;;;5135321;27;20424;-64
2022/08/22 04:50:46;;;;;;;10.40;6.57;;;;;;;;;;5135136;27;20418;-65
2022/08/22 04:53:18;;;;;;;15.67;7.17;;;;;;;;;;5135007;27;20418;-65
2022/08/22 04:55:50;;;;;;;9.90;6.50;;;;;;;;;;5135506;27;20906;-64
2022/08/22 04:58:25;;;;;;;13.30;6.90;;;;;;;;;;5135424;27;20423;-65
2022/08/22 05:00:55;;;;;;;11.03;6.90;;;;;;;;;;5134944;27;20459;-65
2022/08/22 05:03:24;;;;;;;8.57;5.90;;;;;;;;;;5135399;27;20553;-65
2022/08/22 05:05:53;;;;;;;11.77;6.67;;;;;;;;;;5134659;27;20437;-65
2022/08/22 05:08:22;;;;;;;8.70;6.70;;;;;;;;;;5135512;27;20473;-64
2022/08/22 05:10:50;;;;;;;15.17;7.00;;;;;;;;;;5134933;27;20509;-65
2022/08/22 05:13:20;;;;;;;16.10;7.57;;;;;;;;;;5135432;27;20528;-64
2022/08/22 05:15:49;;;;;;;6.87;6.17;;;;;;;;;;5134797;27;20557;-65
2022/08/22 05:18:19;;;;;;;10.70;7.10;;;;;;;;;;5135445;27;20437;-64
2022/08/22 05:20:48;;;;;;;9.20;6.37;;;;;;;;;;5134884;27;20528;-64
2022/08/22 05:23:18;;;;;;;13.40;6.20;;;;;;;;;;5134839;27;20476;-74
2022/08/22 05:25:46;;;;;;;8.40;5.93;;;;;;;;;;5135178;27;20825;-65
2022/08/22 05:28:16;;;;;;;8.23;6.30;;;;;;;;;;5134519;27;20479;-65
2022/08/22 05:30:44;;;;;;;23.93;9.90;;;;;;;;;;5134679;27;20442;-65
2022/08/22 05:33:15;;;;;;;11.70;6.67;;;;;;;;;;5134494;27;20441;-65
2022/08/22 05:35:47;;;;;;;12.40;7.63;;;;;;;;;;5134470;27;20505;-66
2022/08/22 05:38:16;;;;;;;12.63;7.03;;;;;;;;;;5134441;27;20422;-65
2022/08/22 05:40:45;;;;;;;9.80;7.47;;;;;;;;;;5134321;27;20934;-66
2022/08/22 05:43:13;;;;;;;19.20;9.53;;;;;;;;;;5134519;27;20485;-66
2022/08/22 05:45:41;;;;;;;8.93;8.03;;;;;;;;;;5134573;27;20831;-66
2022/08/22 05:48:11;;;;;;;9.70;6.90;;;;;;;;;;5134594;27;20496;-66
2022/08/22 05:50:40;;;;;;;17.27;6.97;;;;;;;;;;5134869;28;20454;-66
2022/08/22 05:53:11;;;;;;;7.27;6.30;;;;;;;;;;5134567;28;20521;-66
2022/08/22 05:55:42;;;;;;;13.60;6.67;;;;;;;;;;5134240;28;20420;-66
2022/08/22 05:58:22;;;;;;;9.77;6.20;;;;;;;;;;5134670;28;20718;-66
2022/08/22 06:00:52;;;;;;;13.40;8.63;;;;;;;;;;5134738;28;20505;-66
2022/08/22 06:03:26;;;;;;;12.87;7.60;;;;;;;;;;5134557;28;20474;-65
2022/08/22 06:05:55;;;;;;;13.40;7.17;;;;;;;;;;5134612;28;20775;-66
2022/08/22 06:08:25;;;;;;;10.70;7.20;;;;;;;;;;5134115;28;20442;-66
2022/08/22 06:10:54;;;;;;;11.00;6.90;;;;;;;;;;5134252;28;20832;-65
2022/08/22 06:13:24;;;;;;;12.57;7.37;;;;;;;;;;5134285;28;20943;-65
2022/08/22 06:15:54;;;;;;;11.10;6.87;;;;;;;;;;5134899;28;20545;-66
2022/08/22 06:18:23;;;;;;;14.70;7.03;;;;;;;;;;5134085;28;20422;-66
2022/08/22 06:20:54;;;;;;;11.37;6.90;;;;;;;;;;5134221;28;20513;-66
2022/08/22 06:23:24;;;;;;;18.00;6.57;;;;;;;;;;5134569;28;20464;-66
2022/08/22 06:25:55;;;;;;;15.17;9.07;;;;;;;;;;5133896;28;20428;-66
2022/08/22 06:28:23;;;;;;;10.40;7.27;;;;;;;;;;5134299;28;20518;-66
2022/08/22 06:30:52;;;;;;;13.23;7.30;;;;;;;;;;5134041;28;20432;-66
2022/08/22 06:33:22;;;;;;;14.87;7.17;;;;;;;;;;5134180;28;20429;-65
2022/08/22 06:38:40;;;;;;;9.03;6.97;;;;;;;;;;5134374;28;20396;-66
2022/08/22 06:41:09;;;;;;;9.70;7.17;;;;;;;;;;5134496;28;20424;-66
2022/08/22 06:43:39;;;;;;;9.23;6.47;;;;;;;;;;5134286;27;20475;-65
2022/08/22 06:46:06;;;;;;;15.53;6.80;;;;;;;;;;5136340;27;20426;-66
2022/08/22 06:48:36;;;;;;;12.47;7.23;;;;;;;;;;5137867;27;20426;-65
2022/08/22 06:51:03;;;;;;;11.57;7.10;;;;;;;;;;5137740;27;20431;-66
2022/08/22 06:53:33;;;;;;;6.83;5.47;;;;;;;;;;5138021;27;20525;-66
2022/08/22 06:56:04;;;;;;;10.43;6.50;;;;;;;;;;5137755;27;20507;-66
2022/08/22 06:58:35;;;;;;;12.80;6.30;;;;;;;;;;5137741;27;20775;-65
2022/08/22 07:01:05;;;;;;;12.07;6.63;;;;;;;;;;5137417;27;20968;-66
2022/08/22 07:03:34;;;;;;;10.07;6.67;;;;;;;;;;5137832;27;20884;-65
2022/08/22 07:06:02;;;;;;;13.07;6.83;;;;;;;;;;5137615;27;20427;-66
2022/08/22 07:08:31;;;;;;;9.30;6.87;;;;;;;;;;5137630;27;20777;-66
2022/08/22 07:11:04;;;;;;;11.90;6.80;;;;;;;;;;5137236;27;20431;-66
2022/08/22 07:13:33;;;;;;;13.30;6.43;;;;;;;;;;5137689;27;20540;-65
2022/08/22 07:16:00;;;;;;;10.00;7.60;;;;;;;;;;5136921;27;20487;-66
2022/08/22 07:18:30;;;;;;;8.90;5.90;;;;;;;;;;5137271;27;20520;-66
2022/08/22 07:20:58;;;;;;;14.73;7.30;;;;;;;;;;5137172;27;20457;-66
2022/08/22 07:23:26;;;;;;;11.23;7.30;;;;;;;;;;5136828;27;20462;-66
2022/08/22 07:25:56;;;;;;;10.67;6.60;;;;;;;;;;5137126;27;20524;-66
2022/08/22 07:28:38;;;;;;;9.17;6.90;;;;;;;;;;5137045;27;20437;-65
2022/08/22 07:31:11;;;;;;;7.63;6.83;;;;;;;;;;5136921;27;20421;-65
2022/08/22 07:33:42;;;;;;;11.17;7.10;;;;;;;;;;5137166;27;20763;-66
2022/08/22 07:36:19;;;;;;;12.00;7.13;;;;;;;;;;5136736;27;20848;-65
2022/08/22 07:38:48;;;;;;;7.43;6.17;;;;;;;;;;5136623;27;20508;-65
2022/08/22 07:41:18;;;;;;;7.03;6.40;;;;;;;;;;5136874;27;20440;-65
2022/08/22 07:43:48;;;;;;;11.60;7.00;;;;;;;;;;5137013;27;20522;-65
2022/08/22 07:46:25;;;;;;;13.03;8.30;;;;;;;;;;5137292;27;20430;-66
2022/08/22 07:48:55;;;;;;;8.87;6.93;;;;;;;;;;5136538;27;20448;-65
2022/08/22 07:51:25;;;;;;;13.20;6.27;;;;;;;;;;5136965;27;20438;-66
2022/08/22 07:53:57;;;;;;;8.50;6.77;;;;;;;;;;5136951;27;20527;-66
2022/08/22 07:56:27;;;;;;;11.27;6.40;;;;;;;;;;5135875;27;20418;-65
2022/08/22 07:58:56;;;;;;;12.10;7.33;;;;;;;;;;5136115;27;20517;-66
2022/08/22 08:01:25;;;;;;;8.77;6.20;;;;;;;;;;5136225;27;20526;-65
2022/08/22 08:03:54;;;;;;;8.87;6.40;;;;;;;;;;5136349;27;20477;-65
2022/08/22 08:06:23;;;;;;;10.17;7.03;;;;;;;;;;5136634;27;20429;-65
2022/08/22 08:08:51;;;;;;;9.90;6.77;;;;;;;;;;5136291;27;20485;-66
2022/08/22 08:11:18;;;;;;;9.93;6.27;;;;;;;;;;5136233;27;20455;-66
2022/08/22 08:13:47;;;;;;;7.50;6.67;;;;;;;;;;5135755;27;20447;-66
2022/08/22 08:16:18;;;;;;;9.30;6.17;;;;;;;;;;5136356;27;20970;-66
2022/08/22 08:18:48;;;;;;;10.13;6.70;;;;;;;;;;5135730;27;20426;-65
2022/08/22 08:21:18;;;;;;;9.20;6.10;;;;;;;;;;5136343;27;20488;-65
2022/08/22 08:23:47;;;;;;;9.33;6.20;;;;;;;;;;5135989;27;20574;-66
2022/08/22 08:26:16;;;;;;;7.80;6.70;;;;;;;;;;5135653;27;20430;-65
2022/08/22 08:28:45;;;;;;;12.20;6.97;;;;;;;;;;5135589;27;20930;-65
2022/08/22 08:31:20;;;;;;;10.47;7.27;;;;;;;;;;5135934;27;20783;-65
2022/08/22 08:33:50;;;;;;;7.30;6.47;;;;;;;;;;5135473;27;20421;-66
2022/08/22 08:36:25;;;;;;;13.70;7.17;;;;;;;;;;5135818;27;20518;-66
2022/08/22 08:38:56;;;;;;;9.30;6.40;;;;;;;;;;5135888;27;20758;-65
2022/08/22 08:41:44;;;;;;;8.53;5.90;;;;;;;;;;5136433;27;20411;-66
2022/08/22 08:44:20;;;;;;;10.20;6.53;;;;;;;;;;5101238;27;20505;-65
2022/08/22 08:47:05;;;;;;;8.67;6.60;;;;;;;;;;5135630;27;20414;-66
2022/08/22 08:49:45;;;;;;;12.07;6.47;;;;;;;;;;5135223;27;20478;-66
2022/08/22 08:52:21;;;;;;;10.23;6.07;;;;;;;;;;5135201;27;20414;-66
2022/08/22 08:54:54;;;;;;;8.80;5.23;;;;;;;;;;5135912;27;20817;-66
2022/08/22 08:57:29;;;;;;;8.50;5.43;;;;;;;;;;5135261;27;20899;-66
2022/08/22 09:00:04;;;;;;;8.23;5.87;;;;;;;;;;5135397;27;20415;-65
2022/08/22 09:02:40;;;;;;;9.50;5.67;;;;;;;;;;5135248;27;20416;-66
2022/08/22 09:05:36;;;;;;;7.90;4.67;;;;;;;;;;5135556;27;20458;-65
2022/08/22 09:08:27;;;;;;;15.37;5.23;;;;;;;;;;5134728;27;20499;-66
2022/08/22 09:11:13;;;;;;;6.07;4.47;;;;;;;;;;5135477;27;20416;-65
2022/08/22 09:13:51;;;;;;;7.83;4.67;;;;;;;;;;5135138;27;20443;-65
2022/08/22 09:16:36;;;;;;;12.17;5.40;;;;;;;;;;5135224;27;20544;-66
2022/08/22 09:19:14;;;;;;;11.00;3.93;;;;;;;;;;5134960;27;20491;-65
2022/08/22 09:21:58;;;;;;;7.00;3.50;;;;;;;;;;5134716;27;20420;-65
2022/08/22 09:24:47;;;;;;;4.17;3.50;;;;;;;;;;5134938;27;20460;-66
2022/08/22 09:27:17;;;;;;;7.03;4.13;;;;;;;;;;5134670;27;20458;-66
2022/08/22 09:29:48;;;;;;;6.40;4.07;;;;;;;;;;5134885;27;20774;-66
2022/08/22 09:32:19;;;;;;;11.63;4.23;;;;;;;;;;5135273;27;20425;-65
2022/08/22 09:34:55;;;;;;;7.43;3.77;;;;;;;;;;5134472;27;20901;-65
2022/08/22 09:37:29;;;;;;;6.20;3.40;;;;;;;;;;5134998;27;20506;-65
2022/08/22 09:40:02;;;;;;;7.13;3.43;;;;;;;;;;5134764;27;20504;-66
2022/08/22 09:42:31;;;;;;;6.40;4.07;;;;;;;;;;5134839;27;20520;-66
2022/08/22 09:45:20;;;;;;;7.80;3.83;;;;;;;;;;5134160;27;20501;-66
2022/08/22 09:47:51;;;;;;;3.70;3.27;;;;;;;;;;5134599;27;20513;-66
2022/08/22 09:50:20;;;;;;;6.20;3.57;;;;;;;;;;5134597;27;20425;-66
2022/08/22 09:52:53;;;;;;;10.00;3.60;;;;;;;;;;5134517;28;20535;-66
2022/08/22 09:55:30;;;;;;;6.03;4.03;;;;;;;;;;5134449;28;20428;-66
2022/08/22 09:58:03;;;;;;;5.57;3.33;;;;;;;;;;5134676;28;20503;-66
2022/08/22 10:00:33;;;;;;;6.60;3.30;;;;;;;;;;5134747;28;20425;-66
2022/08/22 10:03:05;;;;;;;6.00;2.80;;;;;;;;;;5134468;28;20826;-66
2022/08/22 10:05:35;;;;;;;5.60;3.00;;;;;;;;;;5134447;28;20874;-66
2022/08/22 10:08:14;;;;;;;6.50;3.60;;;;;;;;;;5134644;28;20497;-66
2022/08/22 10:10:53;;;;;;;3.43;2.60;;;;;;;;;;5134647;28;20497;-66
2022/08/22 10:13:24;;;;;;;5.37;3.37;;;;;;;;;;5134218;28;20436;-66
2022/08/22 10:15:56;;;;;;;6.97;3.53;;;;;;;;;;5134691;28;20465;-66
2022/08/22 10:18:27;;;;;;;3.77;2.67;;;;;;;;;;5134368;28;20421;-66
2022/08/22 10:20:59;;;;;;;5.50;3.30;;;;;;;;;;5136320;27;20428;-65
2022/08/22 10:23:30;;;;;;;6.50;3.13;;;;;;;;;;5138073;27;20890;-68
2022/08/22 10:26:04;;;;;;;3.50;2.70;;;;;;;;;;5138012;27;20465;-66
2022/08/22 10:28:36;;;;;;;8.20;2.60;;;;;;;;;;5138275;27;20423;-65
2022/08/22 10:31:13;;;;;;;4.57;2.50;;;;;;;;;;5138954;27;20421;-66
2022/08/22 10:33:43;;;;;;;8.37;2.90;;;;;;;;;;5138542;27;20455;-66
2022/08/22 10:36:11;;;;;;;7.10;2.87;;;;;;;;;;5137807;27;20484;-66
2022/08/22 10:38:43;;;;;;;7.63;2.40;;;;;;;;;;5138070;27;20439;-66
2022/08/22 10:41:14;;;;;;;5.27;2.60;;;;;;;;;;5138193;27;20458;-66
2022/08/22 10:43:46;;;;;;;4.30;2.50;;;;;;;;;;5138219;27;20433;-66
2022/08/22 10:46:15;;;;;;;5.47;2.40;;;;;;;;;;5137741;27;20528;-66
2022/08/22 10:48:46;;;;;;;6.90;2.97;;;;;;;;;;5137850;27;20918;-66
2022/08/22 10:51:19;;;;;;;4.33;3.00;;;;;;;;;;5138081;27;21010;-66
2022/08/22 10:53:56;;;;;;;3.90;2.63;;;;;;;;;;5137638;27;20513;-66
2022/08/22 10:56:27;;;;;;;3.03;2.10;;;;;;;;;;5137857;27;20520;-67
2022/08/22 10:59:00;;;;;;;7.57;2.50;;;;;;;;;;5137771;27;20431;-67
2022/08/22 11:01:29;;;;;;;3.63;2.50;;;;;;;;;;5138002;27;20444;-66
2022/08/22 11:04:07;;;;;;;4.10;2.50;;;;;;;;;;5137811;27;20464;-67
2022/08/22 11:06:38;;;;;;;6.27;2.53;;;;;;;;;;5137653;27;20507;-66
2022/08/22 11:09:14;;;;;;;4.70;2.60;;;;;;;;;;5137690;27;20508;-66
2022/08/22 11:11:46;;;;;;;3.03;2.73;;;;;;;;;;5137818;27;20416;-67
2022/08/22 11:14:28;;;;;;;5.97;2.80;;;;;;;;;;5137069;27;20522;-66
2022/08/22 11:16:59;;;;;;;5.20;2.33;;;;;;;;;;5120577;27;20440;-66
2022/08/22 11:19:39;;;;;;;4.20;2.63;;;;;;;;;;5137956;27;20422;-67
2022/08/22 11:22:10;;;;;;;5.03;2.50;;;;;;;;;;5137417;27;20425;-66
2022/08/22 11:24:51;;;;;;;6.30;2.63;;;;;;;;;;5136907;27;20558;-66
2022/08/22 11:27:26;;;;;;;5.80;3.13;;;;;;;;;;5137535;27;20417;-66
2022/08/22 11:29:58;;;;;;;4.93;3.03;;;;;;;;;;5137171;27;20418;-66
2022/08/22 11:32:29;;;;;;;4.43;2.80;;;;;;;;;;5136324;27;20456;-66
2022/08/22 11:34:59;;;;;;;5.17;2.27;;;;;;;;;;5137005;27;20571;-67
2022/08/22 11:37:47;;;;;;;3.70;2.23;;;;;;;;;;5137451;27;20420;-66
2022/08/22 11:40:23;;;;;;;5.33;2.60;;;;;;;;;;5137023;27;20511;-66
2022/08/22 11:42:57;;;;;;;5.23;2.70;;;;;;;;;;5136770;27;20947;-66
2022/08/22 11:45:28;;;;;;;6.10;2.70;;;;;;;;;;5136515;27;20466;-66
2022/08/22 11:47:59;;;;;;;3.77;2.13;;;;;;;;;;5137139;27;20420;-66
2022/08/22 11:50:33;;;;;;;3.37;2.33;;;;;;;;;;5136942;27;20432;-66
2022/08/22 11:53:15;;;;;;;3.53;2.03;;;;;;;;;;5136539;27;20444;-67
2022/08/22 11:55:46;;;;;;;4.80;2.50;;;;;;;;;;5137122;27;20501;-66
2022/08/22 11:58:27;;;;;;;6.07;2.30;;;;;;;;;;5136740;27;20502;-66
2022/08/22 12:00:57;;;;;;;2.63;2.40;;;;;;;;;;5136476;27;20431;-66
2022/08/22 12:03:57;;;;;;;3.40;2.90;;;;;;;;;;5136528;27;20526;-65
2022/08/22 12:06:38;;;;;;;6.10;2.33;;;;;;;;;;5053023;28;20556;-66
2022/08/22 12:09:10;;;;;;;6.53;3.13;;;;;;;;;;5052959;28;20494;-66
2022/08/22 12:11:43;;;;;;;4.40;2.40;;;;;;;;;;5100919;27;20445;-66
2022/08/22 12:14:17;;;;;;;3.50;2.50;;;;;;;;;;5136519;27;20437;-65
2022/08/22 12:16:51;;;;;;;4.20;2.47;;;;;;;;;;5136178;27;20428;-66
2022/08/22 12:19:22;;;;;;;3.93;2.47;;;;;;;;;;5136509;27;20493;-66
2022/08/22 12:22:04;;;;;;;8.13;3.43;;;;;;;;;;5136282;27;20424;-66
2022/08/22 12:24:45;;;;;;;3.50;2.80;;;;;;;;;;5136301;27;20398;-66
2022/08/22 12:27:21;;;;;;;2.37;2.20;;;;;;;;;;5136064;27;20394;-66
2022/08/22 12:29:57;;;;;;;3.90;2.40;;;;;;;;;;5136031;27;20414;-66
2022/08/22 12:32:43;;;;;;;5.60;2.60;;;;;;;;;;5135529;27;20866;-66
2022/08/22 12:35:16;;;;;;;5.77;2.87;;;;;;;;;;5136308;27;20403;-67
2022/08/22 12:37:46;;;;;;;4.63;2.60;;;;;;;;;;5136198;27;20473;-66
2022/08/22 12:40:27;;;;;;;5.10;2.60;;;;;;;;;;5135639;27;20482;-66
2022/08/22 12:43:18;;;;;;;3.33;3.03;;;;;;;;;;5135180;27;20409;-66
2022/08/22 12:45:52;;;;;;;3.30;2.80;;;;;;;;;;5135829;27;20553;-67
2022/08/22 12:48:23;;;;;;;3.90;2.60;;;;;;;;;;5135220;27;20536;-66
2022/08/22 12:50:52;;;;;;;3.70;2.47;;;;;;;;;;5135788;27;20460;-66
2022/08/22 12:53:27;;;;;;;7.00;3.93;;;;;;;;;;5135909;27;20493;-74
2022/08/22 12:56:02;;;;;;;5.00;3.00;;;;;;;;;;5135312;27;20531;-66
2022/08/22 12:58:36;;;;;;;5.17;3.17;;;;;;;;;;5135125;27;20967;-66
2022/08/22 13:01:06;;;;;;;3.50;3.10;;;;;;;;;;5135405;27;20827;-67
2022/08/22 13:03:35;;;;;;;5.10;3.17;;;;;;;;;;5134947;27;20920;-66
2022/08/22 13:06:05;;;;;;;3.10;2.80;;;;;;;;;;5134644;27;20538;-67
2022/08/22 13:08:35;;;;;;;2.80;2.40;;;;;;;;;;5135507;27;20418;-66
2022/08/22 13:11:04;;;;;;;4.90;2.97;;;;;;;;;;5135394;27;20410;-67
2022/08/22 13:13:35;;;;;;;3.63;3.20;;;;;;;;;;5135055;27;20833;-66
2022/08/22 13:16:05;;;;;;;4.93;3.07;;;;;;;;;;5134727;27;20516;-66
2022/08/22 13:18:35;;;;;;;5.37;3.10;;;;;;;;;;5114344;27;20473;-66
2022/08/22 13:21:04;;;;;;;4.07;2.53;;;;;;;;;;5113892;28;20497;-67
2022/08/22 13:23:33;;;;;;;5.90;2.90;;;;;;;;;;5114429;28;20722;-67
2022/08/22 13:26:06;;;;;;;5.67;3.00;;;;;;;;;;5114468;28;20766;-67
2022/08/22 13:28:37;;;;;;;3.70;2.57;;;;;;;;;;5114432;28;20429;-66
2022/08/22 13:31:05;;;;;;;7.33;3.00;;;;;;;;;;5113943;28;20451;-66
2022/08/22 13:33:35;;;;;;;3.40;3.10;;;;;;;;;;5114476;28;20441;-66
2022/08/22 13:36:04;;;;;;;3.40;3.07;;;;;;;;;;5113848;28;20938;-67
2022/08/22 13:38:33;;;;;;;3.40;2.90;;;;;;;;;;5114895;28;20769;-66
2022/08/22 13:41:04;;;;;;;3.27;2.97;;;;;;;;;;5114034;28;20433;-66
2022/08/22 13:43:34;;;;;;;4.93;2.87;;;;;;;;;;5114620;28;20518;-66
2022/08/22 13:46:05;;;;;;;5.67;3.07;;;;;;;;;;5114093;28;20531;-67
2022/08/22 13:48:46;;;;;;;6.60;4.20;;;;;;;;;;5134432;27;20515;-67
2022/08/22 13:51:16;;;;;;;4.20;3.20;;;;;;;;;;5134640;27;20503;-67
2022/08/22 13:53:45;;;;;;;4.80;3.47;;;;;;;;;;5134425;28;20463;-66
2022/08/22 13:56:14;;;;;;;6.20;3.10;;;;;;;;;;5133251;27;20490;-66
2022/08/22 13:58:43;;;;;;;3.10;2.70;;;;;;;;;;5134319;28;20808;-66
2022/08/22 14:01:23;;;;;;;4.63;2.93;;;;;;;;;;5134532;28;20402;-66
2022/08/22 14:03:56;;;;;;;2.77;2.57;;;;;;;;;;5134880;28;20399;-66
2022/08/22 14:06:30;;;;;;;2.93;2.67;;;;;;;;;;5134271;28;20487;-67
2022/08/22 14:08:59;;;;;;;7.60;3.07;;;;;;;;;;5134771;28;20478;-67
2022/08/22 14:11:33;;;;;;;5.50;2.80;;;;;;;;;;5134460;28;20855;-67
2022/08/22 14:14:02;;;;;;;4.70;3.03;;;;;;;;;;5135218;28;20468;-66
2022/08/22 14:16:32;;;;;;;3.53;2.63;;;;;;;;;;5134134;28;20499;-66
2022/08/22 14:19:03;;;;;;;6.87;3.17;;;;;;;;;;5134222;28;20810;-66
2022/08/22 14:21:36;;;;;;;4.13;3.10;;;;;;;;;;5133880;28;20426;-67
2022/08/22 14:24:05;;;;;;;4.70;2.83;;;;;;;;;;5133831;28;20443;-67
2022/08/22 14:26:35;;;;;;;4.93;3.57;;;;;;;;;;5133752;28;21055;-66
2022/08/22 14:29:04;;;;;;;4.83;2.90;;;;;;;;;;5133759;28;20523;-67
2022/08/22 14:31:33;;;;;;;4.83;2.87;;;;;;;;;;5134152;28;20484;-67
2022/08/22 14:34:02;;;;;;;7.40;3.10;;;;;;;;;;5134048;28;20515;-66
2022/08/22 14:36:35;;;;;;;4.40;2.80;;;;;;;;;;5134241;28;20519;-67
2022/08/22 14:39:04;;;;;;;3.60;2.90;;;;;;;;;;5134091;28;20485;-67
2022/08/22 14:41:34;;;;;;;3.57;2.83;;;;;;;;;;5134123;28;20456;-67
2022/08/22 14:44:02;;;;;;;3.57;2.70;;;;;;;;;;5134133;28;20410;-67
2022/08/22 14:46:30;;;;;;;3.97;3.03;;;;;;;;;;5133802;28;20873;-66
2022/08/22 14:49:13;;;;;;;5.37;3.17;;;;;;;;;;5133451;28;20431;-66
2022/08/22 14:51:41;;;;;;;3.80;2.80;;;;;;;;;;5133953;28;20404;-66
2022/08/22 14:54:12;;;;;;;4.20;2.47;;;;;;;;;;5133903;28;20412;-66
2022/08/22 14:56:40;;;;;;;5.10;3.63;;;;;;;;;;5133481;28;20461;-66
2022/08/22 14:59:09;;;;;;;5.63;2.87;;;;;;;;;;5133669;28;20447;-66
2022/08/22 15:01:51;;;;;;;6.03;3.03;;;;;;;;;;5133610;28;20423;-66
2022/08/22 15:04:23;;;;;;;5.13;3.07;;;;;;;;;;5133643;27;20385;-67
2022/08/22 15:06:53;;;;;;;3.40;3.07;;;;;;;;;;5133863;27;20949;-67
2022/08/22 15:09:25;;;;;;;3.43;3.13;;;;;;;;;;5136087;27;20426;-71
2022/08/22 15:11:53;;;;;;;3.57;2.90;;;;;;;;;;5136921;27;20479;-73
2022/08/22 15:14:23;;;;;;;5.33;2.93;;;;;;;;;;5378582;22;20543;-66
2022/08/22 15:19:29;;;;;;;4.67;3.57;;;;;;;;;;5099264;22;20599;-75